createdAt,value
2023-01-29T00:01:39.646Z,45.91
2023-01-29T00:04:09.090Z,46.12
2023-01-29T00:06:36.099Z,46.11
2023-01-29T00:09:03.107Z,45.88
2023-01-29T00:11:31.505Z,45.90
2023-01-29T00:13:58.970Z,46.14
2023-01-29T00:16:25.971Z,46.27
2023-01-29T00:18:53.004Z,46.40
2023-01-29T00:21:22.411Z,46.22
2023-01-29T00:23:50.159Z,46.30
2023-01-29T00:26:18.776Z,46.20
2023-01-29T00:28:49.625Z,46.27
2023-01-29T00:31:20.844Z,46.18
2023-01-29T00:33:48.768Z,46.05
2023-01-29T00:36:17.607Z,46.03
2023-01-29T00:38:54.737Z,45.87
2023-01-29T00:41:41.770Z,46.11
2023-01-29T00:44:27.284Z,46.09
2023-01-29T00:46:54.876Z,46.05
2023-01-29T00:49:23.259Z,46.05
2023-01-29T00:52:09.022Z,45.91
2023-01-29T00:54:38.183Z,45.81
2023-01-29T00:57:05.147Z,45.95
2023-01-29T00:59:32.251Z,45.89
2023-01-29T01:02:17.991Z,45.87
2023-01-29T01:04:45.091Z,45.79
2023-01-29T01:09:57.356Z,46.11
2023-01-29T01:12:24.363Z,45.97
2023-01-29T01:14:51.416Z,46.03
2023-01-29T01:17:19.609Z,46.11
2023-01-29T01:19:46.987Z,46.17
2023-01-29T01:22:14.028Z,46.29
2023-01-29T01:24:40.935Z,46.39
2023-01-29T01:27:08.187Z,46.32
2023-01-29T01:29:35.192Z,46.46
2023-01-29T01:32:02.484Z,46.72
2023-01-29T01:34:30.091Z,46.50
2023-01-29T01:36:57.171Z,46.54
2023-01-29T01:39:25.159Z,46.59
2023-01-29T01:41:55.963Z,46.62
2023-01-29T01:44:53.676Z,46.50
2023-01-29T01:47:48.287Z,46.84
2023-01-29T01:50:30.531Z,46.42
2023-01-29T01:53:09.812Z,46.25
2023-01-29T01:55:50.459Z,46.31
2023-01-29T01:58:24.416Z,46.32
2023-01-29T02:00:54.137Z,46.47
2023-01-29T02:03:42.857Z,46.47
2023-01-29T02:06:29.718Z,46.36
2023-01-29T02:09:20.762Z,46.53
2023-01-29T02:11:47.880Z,46.27
2023-01-29T02:14:14.916Z,46.28
2023-01-29T02:16:42.278Z,46.39
2023-01-29T02:19:27.901Z,46.33
2023-01-29T02:22:07.265Z,46.37
2023-01-29T02:25:09.874Z,46.39
2023-01-29T02:27:49.159Z,46.14
2023-01-29T02:30:34.423Z,46.28
2023-01-29T02:33:22.884Z,46.03
2023-01-29T02:36:02.993Z,46.12
2023-01-29T02:39:15.917Z,46.27
2023-01-29T02:42:06.251Z,45.86
2023-01-29T02:44:42.489Z,45.96
2023-01-29T02:47:29.686Z,45.91
2023-01-29T02:50:06.772Z,45.97
2023-01-29T02:52:40.080Z,45.86
2023-01-29T02:55:13.785Z,45.72
2023-01-29T02:57:51.032Z,45.79
2023-01-29T03:00:24.848Z,45.76
2023-01-29T03:02:59.713Z,46.07
2023-01-29T03:05:34.286Z,45.80
2023-01-29T03:08:11.370Z,45.88
2023-01-29T03:10:44.022Z,45.79
2023-01-29T03:13:18.600Z,46.05
2023-01-29T03:16:01.592Z,45.99
2023-01-29T03:18:50.987Z,46.15
2023-01-29T03:21:43.905Z,45.89
2023-01-29T03:24:34.006Z,45.80
2023-01-29T03:27:22.626Z,45.88
2023-01-29T03:30:11.309Z,45.88
2023-01-29T03:32:54.092Z,45.70
2023-01-29T03:35:36.674Z,45.62
2023-01-29T03:38:07.626Z,45.78
2023-01-29T03:40:55.994Z,45.63
2023-01-29T03:43:35.518Z,45.64
2023-01-29T03:46:29.439Z,45.73
2023-01-29T03:49:16.126Z,45.78
2023-01-29T03:52:06.044Z,45.82
2023-01-29T03:54:43.587Z,45.72
2023-01-29T03:57:29.264Z,45.84
2023-01-29T04:00:06.110Z,45.79
2023-01-29T04:02:55.680Z,45.79
2023-01-29T04:05:29.481Z,45.65
2023-01-29T04:08:14.685Z,46.12
2023-01-29T04:10:45.182Z,45.89
2023-01-29T04:13:15.928Z,45.90
2023-01-29T04:15:50.965Z,45.98
2023-01-29T04:18:24.766Z,45.94
2023-01-29T04:21:07.374Z,46.06
2023-01-29T04:23:34.705Z,45.74
2023-01-29T04:26:28.185Z,45.54
2023-01-29T04:29:38.222Z,46.02
2023-01-29T04:32:23.444Z,45.84
2023-01-29T04:35:02.722Z,45.71
2023-01-29T04:37:50.662Z,45.57
2023-01-29T04:40:30.919Z,45.91
2023-01-29T04:43:08.418Z,46.01
2023-01-29T04:45:45.225Z,45.83
2023-01-29T04:48:27.322Z,45.86
2023-01-29T04:51:13.135Z,45.91
2023-01-29T04:54:11.146Z,45.80
2023-01-29T04:56:59.870Z,46.00
2023-01-29T04:59:35.626Z,45.88
2023-01-29T05:02:04.249Z,45.90
2023-01-29T05:04:34.517Z,45.82
2023-01-29T05:07:09.074Z,46.04
2023-01-29T05:09:37.928Z,46.14
2023-01-29T05:12:09.229Z,45.91
2023-01-29T05:14:38.086Z,46.02
2023-01-29T05:17:13.870Z,46.07
2023-01-29T05:19:40.818Z,46.29
2023-01-29T05:22:11.185Z,46.13
2023-01-29T05:24:38.527Z,46.20
2023-01-29T05:27:24.547Z,46.15
2023-01-29T05:29:52.001Z,46.29
2023-01-29T05:32:19.172Z,46.15
2023-01-29T05:34:46.881Z,45.99
2023-01-29T05:37:13.769Z,46.07
2023-01-29T05:39:40.794Z,46.05
2023-01-29T05:42:07.851Z,46.11
2023-01-29T05:44:34.855Z,46.20
2023-01-29T05:47:04.470Z,46.52
2023-01-29T05:49:31.420Z,46.51
2023-01-29T05:51:58.338Z,46.51
2023-01-29T05:54:25.269Z,46.54
2023-01-29T05:56:52.187Z,46.63
2023-01-29T05:59:19.183Z,46.86
2023-01-29T06:01:46.088Z,46.70
2023-01-29T06:04:13.063Z,46.94
2023-01-29T06:06:39.950Z,47.10
2023-01-29T06:09:06.871Z,46.95
2023-01-29T06:11:33.806Z,46.99
2023-01-29T06:14:00.766Z,47.32
2023-01-29T06:16:27.713Z,47.37
2023-01-29T06:18:54.742Z,47.40
2023-01-29T06:21:21.677Z,47.36
2023-01-29T06:23:48.640Z,47.49
2023-01-29T06:26:16.141Z,47.46
2023-01-29T06:28:43.898Z,47.93
2023-01-29T06:31:30.421Z,48.00
2023-01-29T06:33:59.090Z,48.01
2023-01-29T06:36:26.073Z,48.14
2023-01-29T06:38:53.043Z,48.28
2023-01-29T06:41:22.954Z,48.12
2023-01-29T06:43:50.026Z,48.48
2023-01-29T06:46:17.610Z,48.14
2023-01-29T06:48:44.620Z,48.60
2023-01-29T06:51:11.690Z,48.70
2023-01-29T06:53:40.188Z,48.62
2023-01-29T06:56:08.130Z,48.53
2023-01-29T06:58:38.867Z,48.67
2023-01-29T07:01:17.381Z,48.73
2023-01-29T07:03:52.571Z,48.93
2023-01-29T07:06:20.397Z,48.83
2023-01-29T07:08:47.333Z,48.73
2023-01-29T07:11:14.291Z,48.92
2023-01-29T07:13:41.284Z,48.91
2023-01-29T07:16:08.248Z,49.00
2023-01-29T07:18:35.553Z,49.03
2023-01-29T07:21:07.948Z,49.07
2023-01-29T07:23:35.514Z,48.96
2023-01-29T07:26:06.738Z,48.89
2023-01-29T07:28:38.314Z,49.05
2023-01-29T07:31:06.109Z,49.04
2023-01-29T07:33:34.280Z,48.67
2023-01-29T07:36:01.717Z,48.46
2023-01-29T07:38:28.677Z,48.55
2023-01-29T07:40:55.753Z,48.19
2023-01-29T07:43:24.910Z,46.96
2023-01-29T07:45:52.294Z,45.53
2023-01-29T07:48:19.695Z,44.25
2023-01-29T07:50:55.600Z,42.70
2023-01-29T07:53:22.538Z,41.97
2023-01-29T07:55:49.550Z,40.90
2023-01-29T07:58:16.495Z,39.93
2023-01-29T08:00:43.881Z,38.92
2023-01-29T08:03:20.183Z,37.22
2023-01-29T08:05:47.608Z,37.13
2023-01-29T08:08:14.978Z,36.10
2023-01-29T08:10:42.476Z,35.01
2023-01-29T08:13:09.857Z,34.44
2023-01-29T08:15:39.049Z,33.74
2023-01-29T08:18:06.659Z,32.82
2023-01-29T08:20:33.787Z,32.07
2023-01-29T08:23:08.681Z,30.80
2023-01-29T08:25:36.067Z,31.06
2023-01-29T08:28:02.995Z,30.64
2023-01-29T08:30:32.253Z,30.01
2023-01-29T08:32:59.324Z,29.62
2023-01-29T08:35:27.249Z,28.68
2023-01-29T08:37:55.747Z,28.28
2023-01-29T08:40:23.026Z,28.49
2023-01-29T08:42:49.879Z,28.09
2023-01-29T08:45:17.221Z,27.68
2023-01-29T08:47:50.299Z,26.41
2023-01-29T08:50:18.416Z,26.37
2023-01-29T08:52:46.213Z,25.80
2023-01-29T08:55:14.143Z,24.77
2023-01-29T08:57:41.155Z,24.75
2023-01-29T09:00:10.175Z,24.23
2023-01-29T09:02:37.588Z,25.63
2023-01-29T09:05:05.559Z,25.93
2023-01-29T09:07:32.704Z,25.66
2023-01-29T09:09:59.752Z,27.20
2023-01-29T09:12:26.785Z,27.35
2023-01-29T09:14:53.767Z,27.88
2023-01-29T09:17:20.795Z,28.35
2023-01-29T09:19:47.686Z,28.20
2023-01-29T09:22:14.794Z,28.22
2023-01-29T09:24:41.697Z,27.82
2023-01-29T09:27:10.112Z,28.17
2023-01-29T09:29:37.851Z,27.49
2023-01-29T09:32:05.178Z,27.33
2023-01-29T09:34:34.381Z,27.63
2023-01-29T09:37:01.373Z,27.29
2023-01-29T09:39:28.319Z,25.61
2023-01-29T09:42:20.128Z,24.66
2023-01-29T09:45:10.299Z,25.52
2023-01-29T09:47:37.748Z,26.70
2023-01-29T09:50:08.182Z,26.75
2023-01-29T09:52:38.929Z,26.94
2023-01-29T09:55:31.216Z,27.25
2023-01-29T09:58:06.185Z,28.36
2023-01-29T10:00:48.232Z,28.24
2023-01-29T10:03:42.027Z,28.54
2023-01-29T10:06:22.633Z,29.16
2023-01-29T10:09:26.459Z,28.73
2023-01-29T10:12:31.257Z,28.85
2023-01-29T10:15:06.699Z,28.91
2023-01-29T10:18:03.835Z,28.66
2023-01-29T10:21:15.364Z,28.34
2023-01-29T10:23:49.350Z,29.08
2023-01-29T10:26:18.897Z,28.90
2023-01-29T10:28:50.797Z,27.71
2023-01-29T10:31:25.450Z,27.79
2023-01-29T10:34:01.906Z,27.10
2023-01-29T10:36:58.736Z,26.36
2023-01-29T10:39:27.037Z,25.68
2023-01-29T10:42:14.827Z,24.66
2023-01-29T10:45:02.463Z,22.88
2023-01-29T10:47:41.811Z,22.68
2023-01-29T10:50:42.420Z,21.98
2023-01-29T10:53:41.291Z,20.39
2023-01-29T10:56:49.335Z,20.21
2023-01-29T10:59:36.977Z,21.37
2023-01-29T11:02:18.156Z,19.55
2023-01-29T11:04:46.172Z,20.54
2023-01-29T11:07:15.818Z,20.11
2023-01-29T11:10:00.993Z,21.41
2023-01-29T11:12:32.222Z,20.98
2023-01-29T11:15:24.128Z,19.39
2023-01-29T11:18:06.078Z,19.06
2023-01-29T11:20:34.137Z,20.19
2023-01-29T11:23:01.042Z,19.94
2023-01-29T11:25:29.966Z,20.86
2023-01-29T11:28:01.868Z,19.61
2023-01-29T11:30:41.465Z,19.88
2023-01-29T11:33:22.637Z,20.04
2023-01-29T11:35:52.776Z,20.96
2023-01-29T11:38:28.358Z,21.18
2023-01-29T11:41:07.598Z,21.57
2023-01-29T11:43:34.626Z,23.18
2023-01-29T11:46:07.467Z,23.68
2023-01-29T11:48:46.222Z,24.38
2023-01-29T11:51:25.769Z,25.35
2023-01-29T11:54:04.415Z,26.55
2023-01-29T11:56:40.006Z,26.74
2023-01-29T11:59:21.325Z,28.04
2023-01-29T12:01:48.398Z,28.36
2023-01-29T12:04:26.397Z,28.19
2023-01-29T12:06:54.719Z,28.04
2023-01-29T12:09:28.333Z,28.41
2023-01-29T12:11:55.950Z,28.95
2023-01-29T12:14:33.622Z,28.56
2023-01-29T12:17:15.377Z,28.81
2023-01-29T12:20:00.044Z,29.47
2023-01-29T12:23:02.130Z,30.65
2023-01-29T12:25:55.269Z,30.59
2023-01-29T12:28:37.043Z,30.41
2023-01-29T12:31:26.704Z,30.42
2023-01-29T12:34:16.818Z,29.62
2023-01-29T12:36:59.583Z,29.87
2023-01-29T12:39:27.140Z,29.73
2023-01-29T12:42:04.740Z,30.08
2023-01-29T12:44:43.872Z,30.83
2023-01-29T12:47:19.775Z,31.17
2023-01-29T12:49:53.200Z,31.42
2023-01-29T12:52:36.675Z,31.33
2023-01-29T12:55:13.862Z,30.98
2023-01-29T12:58:02.271Z,31.49
2023-01-29T13:00:43.634Z,31.10
2023-01-29T13:03:44.406Z,30.75
2023-01-29T13:06:22.893Z,32.46
2023-01-29T13:08:58.119Z,33.51
2023-01-29T13:11:34.160Z,33.71
2023-01-29T13:14:07.422Z,35.57
2023-01-29T13:16:41.602Z,36.44
2023-01-29T13:19:33.350Z,36.45
2023-01-29T13:22:05.517Z,36.38
2023-01-29T13:24:40.995Z,36.88
2023-01-29T13:27:20.175Z,38.17
2023-01-29T13:29:47.399Z,38.26
2023-01-29T13:32:22.003Z,40.27
2023-01-29T13:34:50.710Z,40.21
2023-01-29T13:37:38.990Z,40.75
2023-01-29T13:40:08.383Z,39.48
2023-01-29T13:42:46.431Z,39.99
2023-01-29T13:45:35.736Z,41.41
2023-01-29T13:48:32.597Z,42.26
2023-01-29T13:51:04.864Z,41.30
2023-01-29T13:53:38.275Z,41.30
2023-01-29T13:56:30.182Z,43.03
2023-01-29T13:58:58.274Z,42.10
2023-01-29T14:01:46.957Z,42.06
2023-01-29T14:04:22.790Z,42.24
2023-01-29T14:06:57.674Z,42.28
2023-01-29T14:10:09.451Z,42.40
2023-01-29T14:12:39.819Z,42.06
2023-01-29T14:15:19.034Z,42.92
2023-01-29T14:18:09.258Z,43.15
2023-01-29T14:20:47.066Z,42.36
2023-01-29T14:23:28.142Z,43.15
2023-01-29T14:25:55.886Z,43.03
2023-01-29T14:28:29.953Z,42.97
2023-01-29T14:30:57.251Z,42.60
2023-01-29T14:33:43.600Z,42.40
2023-01-29T14:36:14.645Z,42.50
2023-01-29T14:38:51.147Z,42.11
2023-01-29T14:41:34.833Z,42.81
2023-01-29T14:44:46.868Z,43.13
2023-01-29T14:47:28.906Z,43.62
2023-01-29T14:49:57.986Z,45.21
2023-01-29T14:52:44.285Z,45.99
2023-01-29T14:55:31.235Z,46.26
2023-01-29T14:57:59.717Z,45.58
2023-01-29T15:00:35.062Z,46.33
2023-01-29T15:03:12.505Z,46.08
2023-01-29T15:05:42.096Z,45.53
2023-01-29T15:08:30.278Z,46.28
2023-01-29T15:11:19.519Z,45.70
2023-01-29T15:13:50.774Z,44.46
2023-01-29T15:16:24.454Z,44.97
2023-01-29T15:18:57.199Z,45.69
2023-01-29T15:21:24.094Z,44.19
2023-01-29T15:24:04.883Z,44.22
2023-01-29T15:26:32.221Z,43.97
2023-01-29T15:29:05.128Z,44.82
2023-01-29T15:31:32.572Z,44.74
2023-01-29T15:34:06.258Z,44.96
2023-01-29T15:36:33.591Z,45.23
2023-01-29T15:39:09.555Z,45.10
2023-01-29T15:41:36.545Z,44.59
2023-01-29T15:44:04.458Z,45.25
2023-01-29T15:46:36.641Z,46.10
2023-01-29T15:49:10.064Z,45.57
2023-01-29T15:51:37.113Z,45.07
2023-01-29T15:54:09.743Z,45.35
2023-01-29T15:56:40.392Z,44.92
2023-01-29T15:59:16.964Z,45.62
2023-01-29T16:01:44.099Z,45.20
2023-01-29T16:04:20.809Z,45.14
2023-01-29T16:06:50.653Z,44.97
2023-01-29T16:09:26.025Z,46.32
2023-01-29T16:11:54.859Z,46.48
2023-01-29T16:14:25.654Z,46.17
2023-01-29T16:16:53.002Z,45.87
2023-01-29T16:19:29.350Z,45.83
2023-01-29T16:22:03.394Z,45.48
2023-01-29T16:24:32.566Z,45.07
2023-01-29T16:27:10.056Z,45.01
2023-01-29T16:29:37.085Z,44.76
2023-01-29T16:32:05.488Z,44.85
2023-01-29T16:34:37.536Z,44.65
2023-01-29T16:37:26.672Z,44.95
2023-01-29T16:39:53.907Z,44.37
2023-01-29T16:42:30.499Z,44.29
2023-01-29T16:45:05.836Z,45.06
2023-01-29T16:47:34.670Z,44.86
2023-01-29T16:50:20.270Z,45.20
2023-01-29T16:53:05.761Z,45.99
2023-01-29T16:55:37.755Z,46.08
2023-01-29T16:58:20.228Z,46.91
2023-01-29T17:00:51.350Z,46.22
2023-01-29T17:03:19.944Z,46.24
2023-01-29T17:05:47.848Z,46.26
2023-01-29T17:08:30.134Z,47.15
2023-01-29T17:10:57.407Z,46.54
2023-01-29T17:13:33.397Z,46.68
2023-01-29T17:16:05.738Z,46.17
2023-01-29T17:18:32.754Z,46.64
2023-01-29T17:20:59.741Z,46.88
2023-01-29T17:23:26.982Z,47.20
2023-01-29T17:25:54.178Z,47.38
2023-01-29T17:28:22.017Z,47.88
2023-01-29T17:31:04.899Z,47.97
2023-01-29T17:33:57.405Z,48.36
2023-01-29T17:36:24.455Z,48.43
2023-01-29T17:38:51.295Z,48.73
2023-01-29T17:41:30.511Z,48.89
2023-01-29T17:43:57.614Z,48.27
2023-01-29T17:46:24.694Z,48.55
2023-01-29T17:48:52.614Z,48.29
2023-01-29T17:51:19.715Z,48.28
2023-01-29T17:53:47.476Z,48.91
2023-01-29T17:56:24.145Z,48.32
2023-01-29T17:58:51.067Z,48.61
2023-01-29T18:01:17.957Z,48.62
2023-01-29T18:03:44.949Z,48.97
2023-01-29T18:06:29.532Z,48.81
2023-01-29T18:08:56.980Z,48.20
2023-01-29T18:11:23.869Z,48.80
2023-01-29T18:13:51.381Z,48.37
2023-01-29T18:16:21.747Z,49.07
2023-01-29T18:18:49.415Z,48.66
2023-01-29T18:21:17.715Z,48.74
2023-01-29T18:23:44.757Z,49.13
2023-01-29T18:26:12.441Z,48.71
2023-01-29T18:28:39.506Z,49.26
2023-01-29T18:31:06.737Z,48.77
2023-01-29T18:33:35.265Z,48.98
2023-01-29T18:36:05.044Z,49.54
2023-01-29T18:38:33.497Z,49.73
2023-01-29T18:41:10.761Z,49.17
2023-01-29T18:43:39.146Z,49.60
2023-01-29T18:46:06.757Z,49.15
2023-01-29T18:48:34.403Z,50.09
2023-01-29T18:51:01.502Z,49.20
2023-01-29T18:53:28.420Z,49.16
2023-01-29T18:56:00.135Z,49.92
2023-01-29T18:58:35.780Z,49.19
2023-01-29T19:01:10.983Z,49.54
2023-01-29T19:03:40.611Z,49.08
2023-01-29T19:06:10.065Z,49.08
2023-01-29T19:08:41.129Z,48.89
2023-01-29T19:11:09.109Z,49.30
2023-01-29T19:13:37.130Z,49.50
2023-01-29T19:16:08.284Z,49.83
2023-01-29T19:18:35.446Z,49.78
2023-01-29T19:21:07.764Z,49.69
2023-01-29T19:23:34.773Z,49.68
2023-01-29T19:26:01.823Z,49.40
2023-01-29T19:28:32.140Z,50.00
2023-01-29T19:31:05.632Z,49.71
2023-01-29T19:33:33.231Z,49.86
2023-01-29T19:36:02.954Z,49.81
2023-01-29T19:38:33.701Z,49.51
2023-01-29T19:41:07.988Z,49.77
2023-01-29T19:43:41.560Z,49.94
2023-01-29T19:46:14.767Z,50.51
2023-01-29T19:48:42.572Z,49.90
2023-01-29T19:51:11.014Z,49.92
2023-01-29T19:53:40.210Z,50.49
2023-01-29T19:56:16.272Z,50.09
2023-01-29T19:58:46.153Z,49.99
2023-01-29T20:01:34.859Z,50.04
2023-01-29T20:04:02.279Z,49.60
2023-01-29T20:06:33.239Z,49.46
2023-01-29T20:09:02.368Z,49.64
2023-01-29T20:11:29.465Z,49.27
2023-01-29T20:14:04.565Z,49.02
2023-01-29T20:16:34.609Z,48.67
2023-01-29T20:19:14.282Z,48.51
2023-01-29T20:21:45.307Z,48.40
2023-01-29T20:24:15.672Z,48.37
2023-01-29T20:26:43.091Z,48.17
2023-01-29T20:29:10.075Z,48.16
2023-01-29T20:31:39.922Z,48.19
2023-01-29T20:34:07.036Z,48.03
2023-01-29T20:36:34.062Z,47.66
2023-01-29T20:39:01.099Z,47.92
2023-01-29T20:41:28.181Z,47.64
2023-01-29T20:43:55.087Z,47.61
2023-01-29T20:46:22.138Z,47.59
2023-01-29T20:49:17.257Z,47.27
2023-01-29T20:51:47.870Z,47.43
2023-01-29T20:54:15.106Z,47.15
2023-01-29T20:56:42.604Z,47.41
2023-01-29T20:59:10.713Z,47.30
2023-01-29T21:01:37.605Z,47.39
2023-01-29T21:04:08.560Z,47.29
2023-01-29T21:06:35.859Z,47.25
2023-01-29T21:09:06.107Z,47.17
2023-01-29T21:11:33.740Z,47.24
2023-01-29T21:14:02.014Z,47.31
2023-01-29T21:16:29.283Z,47.47
2023-01-29T21:18:59.769Z,47.65
2023-01-29T21:21:26.880Z,47.56
2023-01-29T21:23:54.361Z,47.40
2023-01-29T21:26:23.351Z,47.49
2023-01-29T21:28:50.592Z,47.48
2023-01-29T21:31:17.846Z,47.31
2023-01-29T21:33:45.395Z,47.45
2023-01-29T21:36:12.473Z,47.50
2023-01-29T21:38:40.063Z,47.29
2023-01-29T21:41:09.896Z,47.47
2023-01-29T21:43:37.742Z,47.13
2023-01-29T21:46:11.835Z,47.14
2023-01-29T21:48:43.414Z,47.27
2023-01-29T21:51:10.501Z,47.28
2023-01-29T21:53:37.514Z,47.58
2023-01-29T21:56:05.951Z,47.57
2023-01-29T21:58:33.052Z,47.52
2023-01-29T22:01:35.876Z,47.75
2023-01-29T22:03:47.669Z,47.62
2023-01-29T22:06:15.419Z,47.77
2023-01-29T22:08:48.509Z,47.64
2023-01-29T22:11:15.688Z,48.17
2023-01-29T22:13:42.730Z,47.78
2023-01-29T22:16:09.661Z,47.76
2023-01-29T22:18:36.599Z,47.99
2023-01-29T22:21:03.681Z,47.92
2023-01-29T22:23:31.960Z,48.31
2023-01-29T22:26:03.891Z,48.17
2023-01-29T22:28:32.191Z,47.99
2023-01-29T22:31:03.217Z,47.93
2023-01-29T22:33:30.566Z,48.05
2023-01-29T22:35:58.266Z,48.24
2023-01-29T22:38:25.595Z,48.35
2023-01-29T22:40:57.519Z,48.43
2023-01-29T22:43:29.495Z,48.19
2023-01-29T22:45:59.529Z,48.14
2023-01-29T22:48:28.484Z,47.84
2023-01-29T22:51:10.074Z,48.29
2023-01-29T22:53:38.648Z,48.17
2023-01-29T22:56:06.809Z,47.85
2023-01-29T22:58:34.444Z,48.10
2023-01-29T23:01:02.339Z,47.92
2023-01-29T23:03:29.348Z,48.00
2023-01-29T23:05:56.490Z,47.90
2023-01-29T23:08:23.448Z,48.37
2023-01-29T23:10:50.404Z,48.02
2023-01-29T23:13:17.453Z,47.97
2023-01-29T23:15:44.383Z,48.15
2023-01-29T23:18:11.368Z,48.07
2023-01-29T23:20:38.453Z,47.76
2023-01-29T23:23:05.362Z,48.23
2023-01-29T23:25:50.656Z,47.93
2023-01-29T23:28:17.946Z,47.96
2023-01-29T23:30:45.414Z,47.73
2023-01-29T23:33:12.706Z,47.60
2023-01-29T23:35:40.032Z,47.60
2023-01-29T23:38:06.924Z,47.92
2023-01-29T23:40:33.874Z,47.55
2023-01-29T23:43:00.755Z,48.06
2023-01-29T23:45:27.671Z,47.98
2023-01-29T23:47:54.552Z,48.07
2023-01-29T23:50:21.455Z,48.01
2023-01-29T23:52:48.367Z,47.63
2023-01-29T23:55:15.465Z,47.84
2023-01-29T23:57:42.379Z,47.95
